createdAt,value
2023-01-17T00:02:02.886Z,93347.53
2023-01-17T00:04:48.604Z,93344.41
2023-01-17T00:07:49.434Z,93348.38
2023-01-17T00:10:18.519Z,93339.72
2023-01-17T00:12:50.089Z,93353.81
2023-01-17T00:15:19.645Z,93351.84
2023-01-17T00:17:48.090Z,93356.28
2023-01-17T00:20:34.506Z,93364.19
2023-01-17T00:23:24.086Z,93349.56
2023-01-17T00:26:06.612Z,93364.16
2023-01-17T00:28:35.268Z,93360.56
2023-01-17T00:31:02.585Z,93371.84
2023-01-17T00:33:29.081Z,93384.06
2023-01-17T00:35:57.749Z,93373.47
2023-01-17T00:38:27.092Z,93382.19
2023-01-17T00:40:53.793Z,93383.13
2023-01-17T00:43:40.737Z,93390.28
2023-01-17T00:46:26.945Z,93382.09
2023-01-17T00:49:12.222Z,93389.34
2023-01-17T00:51:57.423Z,93389.59
2023-01-17T00:54:44.071Z,93397.69
2023-01-17T00:57:29.200Z,93402.50
2023-01-17T01:00:14.430Z,93393.28
2023-01-17T01:02:59.866Z,93404.91
2023-01-17T01:05:45.041Z,93415.00
2023-01-17T01:08:38.557Z,93414.25
2023-01-17T01:11:26.885Z,93428.63
2023-01-17T01:14:12.335Z,93430.34
2023-01-17T01:16:57.483Z,93442.97
2023-01-17T01:19:42.682Z,93439.31
2023-01-17T01:22:27.779Z,93442.81
2023-01-17T01:25:13.108Z,93448.53
2023-01-17T01:27:59.715Z,93451.78
2023-01-17T01:30:45.089Z,93457.03
2023-01-17T01:33:20.238Z,93450.41
2023-01-17T01:35:50.400Z,93455.31
2023-01-17T01:38:18.043Z,93461.28
2023-01-17T01:40:48.445Z,93452.34
2023-01-17T01:43:19.643Z,93455.31
2023-01-17T01:45:52.699Z,93448.28
2023-01-17T01:48:34.647Z,93441.31
2023-01-17T01:51:06.365Z,93443.44
2023-01-17T01:53:36.557Z,93448.00
2023-01-17T01:56:06.912Z,93444.69
2023-01-17T01:58:37.753Z,93438.28
2023-01-17T02:01:08.594Z,93446.06
2023-01-17T02:03:38.680Z,93439.44
2023-01-17T02:06:15.454Z,93447.84
2023-01-17T02:08:43.487Z,93442.31
2023-01-17T02:11:12.278Z,93450.78
2023-01-17T02:13:41.931Z,93446.44
2023-01-17T02:16:18.426Z,93450.19
2023-01-17T02:18:59.212Z,93453.94
2023-01-17T02:21:30.418Z,93448.28
2023-01-17T02:24:44.466Z,93452.78
2023-01-17T02:27:24.834Z,93456.72
2023-01-17T02:30:15.993Z,93464.16
2023-01-17T02:32:54.474Z,93459.84
2023-01-17T02:35:30.697Z,93465.59
2023-01-17T02:38:08.267Z,93460.09
2023-01-17T02:40:41.574Z,93471.22
2023-01-17T02:43:12.871Z,93451.28
2023-01-17T02:45:40.405Z,93453.78
2023-01-17T02:48:12.320Z,93463.16
2023-01-17T02:50:55.433Z,93458.34
2023-01-17T02:53:36.441Z,93456.91
2023-01-17T02:56:14.360Z,93468.16
2023-01-17T02:59:02.330Z,93459.97
2023-01-17T03:01:38.703Z,93459.84
2023-01-17T03:04:14.318Z,93463.28
2023-01-17T03:06:47.971Z,93464.63
2023-01-17T03:09:17.857Z,93471.03
2023-01-17T03:11:45.396Z,93460.78
2023-01-17T03:14:12.937Z,93478.38
2023-01-17T03:16:40.834Z,93462.00
2023-01-17T03:19:09.963Z,93475.03
2023-01-17T03:21:37.631Z,93477.50
2023-01-17T03:24:05.551Z,93486.66
2023-01-17T03:26:33.091Z,93485.72
2023-01-17T03:29:00.596Z,93499.13
2023-01-17T03:31:28.077Z,93503.13
2023-01-17T03:33:55.545Z,93503.84
2023-01-17T03:36:24.355Z,93504.81
2023-01-17T03:38:51.820Z,93512.94
2023-01-17T03:41:19.309Z,93508.97
2023-01-17T03:43:46.796Z,93504.84
2023-01-17T03:46:21.655Z,93507.72
2023-01-17T03:48:50.050Z,93517.78
2023-01-17T03:51:18.313Z,93510.34
2023-01-17T03:53:47.901Z,93515.56
2023-01-17T03:56:15.977Z,93517.56
2023-01-17T03:58:43.589Z,93506.44
2023-01-17T04:01:11.193Z,93514.94
2023-01-17T04:03:38.852Z,93515.75
2023-01-17T04:06:06.920Z,93527.16
2023-01-17T04:08:34.544Z,93521.47
2023-01-17T04:11:03.378Z,93524.47
2023-01-17T04:13:30.879Z,93527.41
2023-01-17T04:15:58.394Z,93524.50
2023-01-17T04:18:26.376Z,93521.97
2023-01-17T04:20:53.897Z,93524.84
2023-01-17T04:23:21.573Z,93523.59
2023-01-17T04:25:49.068Z,93520.19
2023-01-17T04:28:17.934Z,93511.78
2023-01-17T04:30:45.412Z,93529.28
2023-01-17T04:33:13.227Z,93531.72
2023-01-17T04:35:40.811Z,93519.91
2023-01-17T04:38:08.303Z,93523.88
2023-01-17T04:40:35.841Z,93535.13
2023-01-17T04:43:03.338Z,93534.09
2023-01-17T04:45:32.167Z,93531.81
2023-01-17T04:48:03.864Z,93535.69
2023-01-17T04:50:32.443Z,93531.00
2023-01-17T04:52:59.950Z,93538.78
2023-01-17T04:55:27.448Z,93535.69
2023-01-17T04:57:54.963Z,93529.38
2023-01-17T05:00:24.126Z,93538.13
2023-01-17T05:02:53.233Z,93541.13
2023-01-17T05:05:20.801Z,93536.75
2023-01-17T05:07:54.438Z,93540.84
2023-01-17T05:10:21.988Z,93539.53
2023-01-17T05:12:54.989Z,93547.66
2023-01-17T05:15:22.991Z,93537.75
2023-01-17T05:17:53.822Z,93549.19
2023-01-17T05:20:22.065Z,93553.72
2023-01-17T05:22:55.475Z,93551.56
2023-01-17T05:25:23.787Z,93561.22
2023-01-17T05:27:51.334Z,93559.28
2023-01-17T05:30:19.847Z,93551.09
2023-01-17T05:32:49.690Z,93561.28
2023-01-17T05:35:19.651Z,93562.06
2023-01-17T05:37:49.085Z,93572.16
2023-01-17T05:40:17.035Z,93575.59
2023-01-17T05:42:47.875Z,93576.94
2023-01-17T05:45:17.056Z,93568.66
2023-01-17T05:47:44.764Z,93563.91
2023-01-17T05:50:13.001Z,93566.34
2023-01-17T05:52:42.513Z,93569.06
2023-01-17T05:55:11.382Z,93585.75
2023-01-17T05:57:39.754Z,93579.00
2023-01-17T06:00:08.734Z,93579.19
2023-01-17T06:02:36.297Z,93582.09
2023-01-17T06:05:04.084Z,93583.72
2023-01-17T06:07:31.773Z,93584.53
2023-01-17T06:10:00.845Z,93582.59
2023-01-17T06:12:28.341Z,93581.09
2023-01-17T06:14:55.923Z,93571.78
2023-01-17T06:17:23.441Z,93578.28
2023-01-17T06:19:50.926Z,93572.94
2023-01-17T06:22:18.405Z,93585.59
2023-01-17T06:24:45.899Z,93582.81
2023-01-17T06:27:14.736Z,93592.09
2023-01-17T06:29:42.269Z,93589.13
2023-01-17T06:32:09.964Z,93597.19
2023-01-17T06:34:38.704Z,93595.63
2023-01-17T06:37:06.415Z,93614.91
2023-01-17T06:39:33.935Z,93621.06
2023-01-17T06:42:01.877Z,93613.91
2023-01-17T06:44:30.729Z,93609.69
2023-01-17T06:46:58.227Z,93616.84
2023-01-17T06:49:26.008Z,93617.81
2023-01-17T06:51:53.503Z,93616.13
2023-01-17T06:54:21.055Z,93618.38
2023-01-17T06:56:48.568Z,93627.59
2023-01-17T06:59:16.053Z,93624.88
2023-01-17T07:01:44.960Z,93610.03
2023-01-17T07:04:12.520Z,93613.31
2023-01-17T07:06:40.007Z,93609.53
2023-01-17T07:09:07.494Z,93617.28
2023-01-17T07:11:34.976Z,93618.19
2023-01-17T07:14:02.471Z,93616.00
2023-01-17T07:16:30.266Z,93610.44
2023-01-17T07:18:59.141Z,93613.06
2023-01-17T07:21:26.666Z,93618.19
2023-01-17T07:23:54.263Z,93613.59
2023-01-17T07:26:21.771Z,93619.25
2023-01-17T07:28:49.264Z,93622.34
2023-01-17T07:31:16.823Z,93616.81
2023-01-17T07:33:44.399Z,93608.22
2023-01-17T07:36:13.383Z,93604.88
2023-01-17T07:38:41.266Z,93603.44
2023-01-17T07:41:10.969Z,93595.22
2023-01-17T07:43:38.717Z,93602.22
2023-01-17T07:46:07.272Z,93596.41
2023-01-17T07:48:34.909Z,93595.44
2023-01-17T07:51:02.475Z,93601.53
2023-01-17T07:53:33.373Z,93606.19
2023-01-17T07:56:05.463Z,93620.41
2023-01-17T07:58:33.369Z,93614.19
2023-01-17T08:01:05.263Z,93607.50
2023-01-17T08:03:35.811Z,93601.09
2023-01-17T08:06:03.878Z,93590.28
2023-01-17T08:08:32.767Z,93594.09
2023-01-17T08:11:00.279Z,93588.25
2023-01-17T08:13:29.783Z,93590.75
2023-01-17T08:15:57.475Z,93591.84
2023-01-17T08:18:25.106Z,93588.03
2023-01-17T08:20:52.585Z,93595.34
2023-01-17T08:23:20.079Z,93593.69
2023-01-17T08:25:48.910Z,93589.22
2023-01-17T08:28:16.658Z,93586.75
2023-01-17T08:30:44.403Z,93595.50
2023-01-17T08:33:11.956Z,93598.78
2023-01-17T08:35:39.771Z,93589.13
2023-01-17T08:38:07.297Z,93589.44
2023-01-17T08:40:34.826Z,93586.44
2023-01-17T08:43:03.857Z,93574.72
2023-01-17T08:45:31.365Z,93578.66
2023-01-17T08:47:59.876Z,93574.22
2023-01-17T08:50:27.819Z,93575.22
2023-01-17T08:53:01.252Z,93580.72
2023-01-17T08:55:29.147Z,93579.69
2023-01-17T08:57:57.300Z,93580.59
2023-01-17T09:00:27.109Z,93584.66
2023-01-17T09:02:54.824Z,93581.72
2023-01-17T09:05:22.299Z,93573.13
2023-01-17T09:07:49.815Z,93576.44
2023-01-17T09:10:17.615Z,93570.34
2023-01-17T09:12:45.258Z,93566.31
2023-01-17T09:15:14.603Z,93571.31
2023-01-17T09:17:43.489Z,93579.16
2023-01-17T09:20:12.425Z,93579.63
2023-01-17T09:22:39.946Z,93580.75
2023-01-17T09:25:08.478Z,93572.38
2023-01-17T09:27:35.999Z,93577.69
2023-01-17T09:30:03.765Z,93577.66
2023-01-17T09:32:31.263Z,93576.25
2023-01-17T09:35:00.734Z,93575.56
2023-01-17T09:37:28.474Z,93583.03
2023-01-17T09:39:55.941Z,93577.69
2023-01-17T09:42:32.788Z,93572.53
2023-01-17T09:45:00.501Z,93568.09
2023-01-17T09:47:35.154Z,93583.25
2023-01-17T09:50:19.874Z,93586.56
2023-01-17T09:52:47.783Z,93589.56
2023-01-17T09:55:17.472Z,93592.97
2023-01-17T09:57:55.200Z,93600.94
2023-01-17T10:00:36.656Z,93594.50
2023-01-17T10:03:32.707Z,93603.06
2023-01-17T10:06:15.115Z,93599.00
2023-01-17T10:08:58.917Z,93590.88
2023-01-17T10:11:39.005Z,93593.66
2023-01-17T10:14:28.933Z,93589.28
2023-01-17T10:17:07.591Z,93585.66
2023-01-17T10:19:56.670Z,93565.34
2023-01-17T10:22:36.763Z,93553.84
2023-01-17T10:25:15.874Z,93556.41
2023-01-17T10:27:49.349Z,93559.19
2023-01-17T10:30:22.589Z,93546.03
2023-01-17T10:32:50.851Z,93545.63
2023-01-17T10:35:24.765Z,93538.22
2023-01-17T10:37:56.885Z,93527.16
2023-01-17T10:40:32.585Z,93512.78
2023-01-17T10:43:05.489Z,93502.63
2023-01-17T10:45:41.029Z,93498.16
2023-01-17T10:48:13.962Z,93495.56
2023-01-17T10:50:51.295Z,93499.94
2023-01-17T10:53:38.570Z,93493.19
2023-01-17T10:56:07.717Z,93490.00
2023-01-17T10:58:35.235Z,93483.63
2023-01-17T11:01:06.795Z,93483.09
2023-01-17T11:03:35.214Z,93477.47
2023-01-17T11:06:21.723Z,93467.25
2023-01-17T11:08:53.969Z,93465.19
2023-01-17T11:11:24.053Z,93469.94
2023-01-17T11:13:54.102Z,93473.56
2023-01-17T11:16:25.098Z,93482.97
2023-01-17T11:19:08.427Z,93483.34
2023-01-17T11:21:39.952Z,93485.69
2023-01-17T11:24:19.675Z,93482.03
2023-01-17T11:26:49.438Z,93465.06
2023-01-17T11:29:31.770Z,93462.91
2023-01-17T11:32:27.930Z,93462.69
2023-01-17T11:35:16.344Z,93454.38
2023-01-17T11:37:52.431Z,93446.84
2023-01-17T11:40:30.259Z,93440.63
2023-01-17T11:43:24.382Z,93436.88
2023-01-17T11:46:06.287Z,93421.06
2023-01-17T11:48:36.634Z,93418.91
2023-01-17T11:51:05.733Z,93424.81
2023-01-17T11:53:35.643Z,93422.25
2023-01-17T11:56:07.674Z,93424.91
2023-01-17T11:58:37.984Z,93412.91
2023-01-17T12:01:30.469Z,93409.25
2023-01-17T12:04:21.110Z,93400.72
2023-01-17T12:06:59.021Z,93392.41
2023-01-17T12:09:36.596Z,93389.16
2023-01-17T12:12:31.842Z,93386.69
2023-01-17T12:15:11.687Z,93390.25
2023-01-17T12:17:53.675Z,93394.09
2023-01-17T12:20:28.547Z,93388.94
2023-01-17T12:23:17.052Z,93390.44
2023-01-17T12:25:57.604Z,93394.38
2023-01-17T12:28:57.754Z,93389.25
2023-01-17T12:31:33.393Z,93386.19
2023-01-17T12:34:15.450Z,93390.63
2023-01-17T12:36:49.810Z,93389.06
2023-01-17T12:39:21.441Z,93380.56
2023-01-17T12:41:58.568Z,93388.31
2023-01-17T12:44:41.528Z,93381.69
2023-01-17T12:47:09.756Z,93380.81
2023-01-17T12:49:43.823Z,93386.09
2023-01-17T12:52:20.658Z,93378.66
2023-01-17T12:54:51.976Z,93380.41
2023-01-17T12:57:23.218Z,93379.63
2023-01-17T13:00:00.578Z,93367.91
2023-01-17T13:02:35.583Z,93373.25
2023-01-17T13:05:09.756Z,93369.63
2023-01-17T13:07:43.119Z,93357.97
2023-01-17T13:10:24.321Z,93351.53
2023-01-17T13:12:52.786Z,93343.97
2023-01-17T13:15:25.816Z,93341.59
2023-01-17T13:17:59.029Z,93341.75
2023-01-17T13:20:34.175Z,93347.50
2023-01-17T13:23:10.717Z,93347.81
2023-01-17T13:25:46.105Z,93354.09
2023-01-17T13:28:23.420Z,93349.22
2023-01-17T13:31:11.363Z,93341.63
2023-01-17T13:33:51.443Z,93337.88
2023-01-17T13:36:37.537Z,93340.53
2023-01-17T13:39:24.989Z,93330.13
2023-01-17T13:41:55.109Z,93333.44
2023-01-17T13:44:28.895Z,93332.00
2023-01-17T13:47:01.686Z,93340.28
2023-01-17T13:49:44.692Z,93337.44
2023-01-17T13:52:33.174Z,93332.16
2023-01-17T13:55:02.691Z,93323.75
2023-01-17T13:57:41.831Z,93317.44
2023-01-17T14:00:43.095Z,93312.34
2023-01-17T14:03:13.027Z,93316.63
2023-01-17T14:05:57.620Z,93312.03
2023-01-17T14:08:27.191Z,93310.44
2023-01-17T14:11:04.923Z,93308.34
2023-01-17T14:13:35.567Z,93302.41
2023-01-17T14:16:04.770Z,93305.28
2023-01-17T14:18:39.652Z,93311.53
2023-01-17T14:21:12.207Z,93305.38
2023-01-17T14:23:57.066Z,93304.25
2023-01-17T14:26:46.735Z,93299.41
2023-01-17T14:29:45.842Z,93287.94
2023-01-17T14:32:14.912Z,93300.00
2023-01-17T14:34:46.225Z,93285.28
2023-01-17T14:37:20.104Z,93293.00
2023-01-17T14:39:50.445Z,93292.16
2023-01-17T14:42:21.230Z,93290.75
2023-01-17T14:44:51.900Z,93282.44
2023-01-17T14:47:20.086Z,93289.75
2023-01-17T14:49:48.985Z,93291.72
2023-01-17T14:52:18.908Z,93286.78
2023-01-17T14:54:50.176Z,93280.19
2023-01-17T14:57:29.037Z,93273.03
2023-01-17T15:00:18.924Z,93269.06
2023-01-17T15:02:48.593Z,93257.97
2023-01-17T15:05:19.988Z,93255.59
2023-01-17T15:07:50.596Z,93244.47
2023-01-17T15:10:21.600Z,93244.84
2023-01-17T15:12:49.185Z,93236.69
2023-01-17T15:15:38.209Z,93237.44
2023-01-17T15:18:19.672Z,93243.09
2023-01-17T15:20:57.933Z,93241.13
2023-01-17T15:23:31.546Z,93246.81
2023-01-17T15:25:59.610Z,93243.59
2023-01-17T15:28:27.837Z,93241.84
2023-01-17T15:31:04.033Z,93244.44
2023-01-17T15:33:32.300Z,93254.91
2023-01-17T15:36:02.921Z,93240.41
2023-01-17T15:38:38.548Z,93239.81
2023-01-17T15:41:11.581Z,93235.38
2023-01-17T15:43:41.565Z,93233.50
2023-01-17T15:46:22.925Z,93227.47
2023-01-17T15:48:51.623Z,93227.91
2023-01-17T15:51:33.763Z,93226.19
2023-01-17T15:54:01.391Z,93235.47
2023-01-17T15:56:34.107Z,93236.81
2023-01-17T15:59:21.586Z,93237.34
2023-01-17T16:01:59.182Z,93233.91
2023-01-17T16:04:28.551Z,93236.50
2023-01-17T16:07:10.248Z,93244.81
2023-01-17T16:09:43.176Z,93233.47
2023-01-17T16:12:10.812Z,93238.19
2023-01-17T16:14:59.229Z,93238.53
2023-01-17T16:17:25.843Z,93242.38
2023-01-17T16:19:53.363Z,93228.25
2023-01-17T16:22:22.166Z,93231.69
2023-01-17T16:24:49.679Z,93229.00
2023-01-17T16:27:17.215Z,93215.06
2023-01-17T16:29:44.806Z,93221.22
2023-01-17T16:32:12.319Z,93211.22
2023-01-17T16:34:39.813Z,93215.34
2023-01-17T16:37:08.056Z,93209.06
2023-01-17T16:39:37.095Z,93213.03
2023-01-17T16:42:04.872Z,93201.53
2023-01-17T16:44:33.451Z,93193.94
2023-01-17T16:47:02.223Z,93194.97
2023-01-17T16:49:32.947Z,93186.84
2023-01-17T16:52:00.435Z,93185.56
2023-01-17T16:54:28.439Z,93177.72
2023-01-17T16:56:57.274Z,93182.09
2023-01-17T16:59:25.115Z,93179.53
2023-01-17T17:01:55.474Z,93172.47
2023-01-17T17:04:22.992Z,93172.09
2023-01-17T17:06:50.491Z,93164.84
2023-01-17T17:09:18.237Z,93174.09
2023-01-17T17:11:45.710Z,93176.03
2023-01-17T17:14:14.795Z,93184.56
2023-01-17T17:16:43.510Z,93183.13
2023-01-17T17:19:11.334Z,93188.13
2023-01-17T17:21:38.848Z,93188.28
2023-01-17T17:24:06.844Z,93186.47
2023-01-17T17:26:36.956Z,93182.31
2023-01-17T17:29:05.795Z,93185.69
2023-01-17T17:31:34.634Z,93179.81
2023-01-17T17:34:03.686Z,93173.34
2023-01-17T17:36:31.584Z,93183.81
2023-01-17T17:38:59.333Z,93184.25
2023-01-17T17:41:28.175Z,93189.63
2023-01-17T17:43:56.350Z,93186.28
2023-01-17T17:46:26.121Z,93185.69
2023-01-17T17:48:54.947Z,93183.78
2023-01-17T17:51:24.551Z,93191.06
2023-01-17T17:53:52.618Z,93189.09
2023-01-17T17:56:20.636Z,93189.81
2023-01-17T17:58:48.366Z,93194.03
2023-01-17T18:01:16.245Z,93198.56
2023-01-17T18:03:43.769Z,93205.91
2023-01-17T18:06:13.603Z,93200.06
2023-01-17T18:08:41.119Z,93208.28
2023-01-17T18:11:11.239Z,93210.94
2023-01-17T18:13:39.156Z,93215.56
2023-01-17T18:16:08.586Z,93215.91
2023-01-17T18:18:37.686Z,93216.53
2023-01-17T18:21:10.271Z,93225.38
2023-01-17T18:23:40.863Z,93221.41
2023-01-17T18:26:16.600Z,93226.78
2023-01-17T18:28:44.126Z,93233.66
2023-01-17T18:31:11.941Z,93224.16
2023-01-17T18:33:40.071Z,93226.94
2023-01-17T18:36:09.550Z,93231.03
2023-01-17T18:38:39.521Z,93228.25
2023-01-17T18:41:08.151Z,93227.78
2023-01-17T18:43:36.447Z,93230.53
2023-01-17T18:46:04.997Z,93233.31
2023-01-17T18:48:32.871Z,93231.56
2023-01-17T18:51:02.418Z,93228.41
2023-01-17T18:53:31.300Z,93223.66
2023-01-17T18:56:01.997Z,93228.53
2023-01-17T18:58:31.122Z,93230.34
2023-01-17T19:01:07.912Z,93227.50
2023-01-17T19:03:35.604Z,93234.63
2023-01-17T19:06:03.488Z,93237.84
2023-01-17T19:08:32.138Z,93233.97
2023-01-17T19:11:01.167Z,93234.47
2023-01-17T19:13:28.989Z,93231.22
2023-01-17T19:16:00.139Z,93233.91
2023-01-17T19:18:27.799Z,93238.94
2023-01-17T19:20:55.286Z,93250.66
2023-01-17T19:23:23.173Z,93244.00
2023-01-17T19:25:54.382Z,93255.78
2023-01-17T19:28:23.270Z,93252.09
2023-01-17T19:30:50.853Z,93256.31
2023-01-17T19:33:18.367Z,93260.53
2023-01-17T19:35:45.855Z,93261.41
2023-01-17T19:38:13.327Z,93258.78
2023-01-17T19:40:40.832Z,93257.38
2023-01-17T19:43:08.355Z,93271.81
2023-01-17T19:45:37.213Z,93261.44
2023-01-17T19:48:05.372Z,93266.78
2023-01-17T19:50:32.859Z,93269.13
2023-01-17T19:53:00.358Z,93267.84
2023-01-17T19:55:27.860Z,93264.72
2023-01-17T19:57:55.546Z,93268.63
2023-01-17T20:00:30.102Z,93270.00
2023-01-17T20:02:59.291Z,93262.91
2023-01-17T20:05:26.834Z,93270.81
2023-01-17T20:07:54.759Z,93268.81
2023-01-17T20:10:22.426Z,93264.56
2023-01-17T20:12:49.950Z,93281.34
2023-01-17T20:15:17.721Z,93280.25
2023-01-17T20:17:45.268Z,93276.72
2023-01-17T20:20:14.361Z,93274.13
2023-01-17T20:22:42.404Z,93284.19
2023-01-17T20:25:10.915Z,93280.91
2023-01-17T20:27:40.288Z,93284.16
2023-01-17T20:30:19.747Z,93281.94
2023-01-17T20:32:47.843Z,93276.66
2023-01-17T20:35:17.900Z,93284.63
2023-01-17T20:37:45.397Z,93284.44
2023-01-17T20:40:13.538Z,93281.44
2023-01-17T20:42:41.031Z,93282.13
2023-01-17T20:45:09.870Z,93280.91
2023-01-17T20:47:37.355Z,93287.34
2023-01-17T20:50:06.021Z,93285.41
2023-01-17T20:52:34.888Z,93283.28
2023-01-17T20:55:02.397Z,93283.28
2023-01-17T20:57:31.241Z,93280.06
2023-01-17T20:59:58.808Z,93279.91
2023-01-17T21:02:27.112Z,93275.00
2023-01-17T21:04:54.633Z,93277.13
2023-01-17T21:07:22.154Z,93273.97
2023-01-17T21:09:51.034Z,93272.69
2023-01-17T21:12:18.919Z,93268.97
2023-01-17T21:14:46.420Z,93271.97
2023-01-17T21:17:16.071Z,93257.50
2023-01-17T21:19:43.685Z,93258.25
2023-01-17T21:22:11.206Z,93252.75
2023-01-17T21:24:38.705Z,93251.81
2023-01-17T21:27:07.528Z,93253.00
2023-01-17T21:29:35.056Z,93249.91
2023-01-17T21:32:02.533Z,93254.91
2023-01-17T21:34:31.938Z,93250.19
2023-01-17T21:36:59.434Z,93246.31
2023-01-17T21:39:29.061Z,93246.03
2023-01-17T21:41:56.615Z,93253.59
2023-01-17T21:44:25.966Z,93254.66
2023-01-17T21:46:56.150Z,93260.72
2023-01-17T21:49:24.199Z,93262.28
2023-01-17T21:52:09.144Z,93260.72
2023-01-17T21:54:53.974Z,93257.03
2023-01-17T21:57:40.568Z,93260.94
2023-01-17T22:00:14.379Z,93261.69
2023-01-17T22:02:42.081Z,93267.41
2023-01-17T22:05:10.662Z,93265.81
2023-01-17T22:07:39.316Z,93267.25
2023-01-17T22:10:07.760Z,93261.81
2023-01-17T22:12:35.339Z,93267.84
2023-01-17T22:15:04.081Z,93269.69
2023-01-17T22:17:32.973Z,93273.53
2023-01-17T22:20:00.476Z,93261.41
2023-01-17T22:22:27.998Z,93265.88
2023-01-17T22:24:56.419Z,93271.13
2023-01-17T22:27:23.976Z,93271.53
2023-01-17T22:29:51.460Z,93274.38
2023-01-17T22:32:18.968Z,93270.72
2023-01-17T22:34:48.439Z,93271.53
2023-01-17T22:37:16.007Z,93268.72
2023-01-17T22:39:43.594Z,93270.94
2023-01-17T22:42:13.253Z,93268.50
2023-01-17T22:44:40.832Z,93269.72
2023-01-17T22:47:08.437Z,93271.34
2023-01-17T22:49:35.958Z,93260.00
2023-01-17T22:52:05.272Z,93268.28
2023-01-17T22:54:32.856Z,93267.47
2023-01-17T22:57:00.384Z,93279.56
2023-01-17T22:59:27.880Z,93277.38
2023-01-17T23:01:55.639Z,93283.94
2023-01-17T23:04:23.220Z,93280.19
2023-01-17T23:06:50.756Z,93276.78
2023-01-17T23:09:19.570Z,93279.59
2023-01-17T23:11:50.739Z,93276.38
2023-01-17T23:14:20.604Z,93271.94
2023-01-17T23:17:08.468Z,93275.97
2023-01-17T23:19:37.770Z,93286.47
2023-01-17T23:22:22.276Z,93292.69
2023-01-17T23:24:53.314Z,93281.59
2023-01-17T23:27:40.634Z,93282.44
2023-01-17T23:30:12.093Z,93270.72
2023-01-17T23:32:40.960Z,93279.19
2023-01-17T23:35:08.864Z,93275.13
2023-01-17T23:37:53.955Z,93277.13
2023-01-17T23:40:23.373Z,93273.44
2023-01-17T23:43:08.738Z,93279.09
2023-01-17T23:45:36.776Z,93279.66
2023-01-17T23:48:05.570Z,93280.66
2023-01-17T23:50:33.811Z,93273.88
2023-01-17T23:53:06.793Z,93271.84
2023-01-17T23:55:37.818Z,93269.06
2023-01-17T23:58:05.860Z,93274.94
